< < Back
Terminal Aerodrome Forecast


Current Version              Previous Versions:   1  2  3  4  5  6  7  8  9  

Terminal Aerodrome Forecast

674
FTUS42 KJAX 290000 AAA
TAFSSI
TAF AMD
KSSI 290057Z 2901/2924 24010KT P6SM VCSH SCT050 BKN250
     FM291000 28008KT P6SM FEW030 SCT250
     FM291400 30009KT P6SM SCT035 SCT250
     FM292200 18010KT P6SM FEW250=



Latest METAR

655
SAUS70 KWBC 291900 RRX
MTRSSI
METAR KSSI 291953Z AUTO 14010KT 10SM BKN075 31/21 A2988 RMK AO2 SLP119
T03110211


USA.gov is the U.S. government's official web portal to all federal, state and local government web resources and services.